createdAt,value
2018-04-27T00:00:39.343Z,0
2018-04-27T00:01:20.680Z,0
2018-04-27T00:02:01.094Z,0
2018-04-27T00:02:41.508Z,0
2018-04-27T00:03:21.890Z,0
2018-04-27T00:04:02.313Z,0
2018-04-27T00:04:42.773Z,0
2018-04-27T00:05:23.145Z,0
2018-04-27T00:06:03.569Z,0
2018-04-27T00:06:44.015Z,0
2018-04-27T00:07:24.475Z,0
2018-04-27T00:08:04.862Z,0
2018-04-27T00:08:45.242Z,0
2018-04-27T00:09:25.654Z,0
2018-04-27T00:10:06.168Z,0
2018-04-27T00:10:46.539Z,0
2018-04-27T00:11:26.899Z,0
2018-04-27T00:12:07.343Z,0
2018-04-27T00:12:47.694Z,0
2018-04-27T00:13:28.110Z,0
2018-04-27T00:14:08.528Z,0
2018-04-27T00:14:48.933Z,0
2018-04-27T00:15:29.347Z,0
2018-04-27T00:16:09.739Z,0
2018-04-27T00:16:50.154Z,0
2018-04-27T00:17:30.566Z,0
2018-04-27T00:18:10.981Z,0
2018-04-27T00:18:51.409Z,0
2018-04-27T00:19:31.821Z,0
2018-04-27T00:20:12.235Z,0
2018-04-27T00:20:52.643Z,0
2018-04-27T00:21:33.036Z,0
2018-04-27T00:22:13.463Z,0
2018-04-27T00:22:53.899Z,0
2018-04-27T00:23:34.369Z,0
2018-04-27T00:24:14.707Z,0
2018-04-27T00:24:55.142Z,0
2018-04-27T00:25:35.577Z,0
2018-04-27T00:26:16.002Z,0
2018-04-27T00:26:56.393Z,0
2018-04-27T00:27:36.852Z,0
2018-04-27T00:28:17.206Z,0
2018-04-27T00:28:57.669Z,0
2018-04-27T00:29:37.996Z,0
2018-04-27T00:30:18.348Z,0
2018-04-27T00:30:58.798Z,0
2018-04-27T00:31:39.221Z,0
2018-04-27T00:32:19.644Z,0
2018-04-27T00:33:00.052Z,0
2018-04-27T00:33:40.424Z,0
2018-04-27T00:34:20.868Z,0
2018-04-27T00:35:01.276Z,0
2018-04-27T00:35:41.720Z,0
2018-04-27T00:36:22.079Z,0
2018-04-27T00:37:02.523Z,0
2018-04-27T00:37:42.939Z,0
2018-04-27T00:38:23.350Z,0
2018-04-27T00:39:03.796Z,0
2018-04-27T00:39:44.174Z,0
2018-04-27T00:40:24.619Z,0
2018-04-27T00:41:04.996Z,0
2018-04-27T00:41:45.494Z,0
2018-04-27T00:42:25.832Z,0
2018-04-27T00:43:06.225Z,0
2018-04-27T00:43:46.662Z,0
2018-04-27T00:44:27.127Z,0
2018-04-27T00:45:07.508Z,0
2018-04-27T00:45:47.917Z,0
2018-04-27T00:46:28.329Z,0
2018-04-27T00:47:08.782Z,0
2018-04-27T00:47:49.217Z,0
2018-04-27T00:48:29.604Z,0
2018-04-27T00:49:09.976Z,0
2018-04-27T00:49:50.389Z,0
2018-04-27T00:50:30.790Z,0
2018-04-27T00:58:55.633Z,0
2018-04-27T00:59:36.472Z,0
2018-04-27T01:00:16.858Z,0
2018-04-27T01:00:57.265Z,0
2018-04-27T01:01:37.702Z,0
2018-04-27T01:02:18.099Z,0
2018-04-27T01:02:58.489Z,0
2018-04-27T01:03:38.872Z,0
2018-04-27T01:04:19.280Z,0
2018-04-27T01:04:59.677Z,0
2018-04-27T01:05:40.066Z,0
2018-04-27T01:06:20.509Z,0
2018-04-27T01:07:00.939Z,0
2018-04-27T01:07:41.347Z,0
2018-04-27T01:08:21.737Z,0
2018-04-27T01:09:02.125Z,0
2018-04-27T01:09:42.604Z,0
2018-04-27T01:10:22.924Z,0
2018-04-27T01:11:03.398Z,0
2018-04-27T01:11:43.775Z,0
2018-04-27T01:12:24.217Z,0
2018-04-27T01:13:04.559Z,0
2018-04-27T01:13:44.969Z,0
2018-04-27T01:14:25.482Z,0
2018-04-27T01:15:05.798Z,0
2018-04-27T01:15:46.219Z,0
2018-04-27T01:16:26.636Z,0
2018-04-27T01:17:07.012Z,0
2018-04-27T01:17:47.488Z,0
2018-04-27T01:18:27.845Z,0
2018-04-27T01:19:08.249Z,0
2018-04-27T01:19:48.641Z,0
2018-04-27T01:20:29.041Z,0
2018-04-27T01:21:09.455Z,0
2018-04-27T01:21:49.854Z,0
2018-04-27T01:22:30.247Z,0
2018-04-27T01:25:40.490Z,0
2018-04-27T01:29:02.452Z,0
2018-04-27T01:30:58.501Z,0
2018-04-27T01:31:38.759Z,0
2018-04-27T01:32:19.204Z,0
2018-04-27T01:32:59.642Z,0
2018-04-27T01:33:39.991Z,0
2018-04-27T01:34:20.378Z,0
2018-04-27T01:35:00.787Z,0
2018-04-27T01:35:41.150Z,0
2018-04-27T01:36:21.555Z,0
2018-04-27T01:37:01.980Z,0
2018-04-27T01:37:42.402Z,0
2018-04-27T01:38:22.818Z,0
2018-04-27T01:39:03.253Z,0
2018-04-27T01:39:43.698Z,0
2018-04-27T01:40:24.116Z,0
2018-04-27T01:41:04.599Z,0
2018-04-27T01:41:44.944Z,0
2018-04-27T01:42:25.377Z,0
2018-04-27T01:43:05.783Z,0
2018-04-27T01:43:46.193Z,0
2018-04-27T01:44:26.616Z,0
2018-04-27T01:45:06.994Z,0
2018-04-27T01:45:47.433Z,0
2018-04-27T01:46:27.779Z,0
2018-04-27T01:47:08.200Z,0
2018-04-27T01:47:48.595Z,0
2018-04-27T01:48:29.026Z,0
2018-04-27T01:49:09.483Z,0
2018-04-27T01:49:49.917Z,0
2018-04-27T01:50:30.326Z,0
2018-04-27T01:51:10.726Z,0
2018-04-27T01:51:51.135Z,0
2018-04-27T01:52:31.562Z,0
2018-04-27T01:53:11.954Z,0
2018-04-27T01:53:52.336Z,0
2018-04-27T01:54:32.752Z,0
2018-04-27T01:55:13.112Z,0
2018-04-27T01:55:53.572Z,0
2018-04-27T01:56:33.939Z,0
2018-04-27T01:57:14.361Z,0
2018-04-27T01:57:54.794Z,0
2018-04-27T01:58:35.274Z,0
2018-04-27T01:59:15.676Z,0
2018-04-27T01:59:56.089Z,0
2018-04-27T02:00:36.501Z,0
2018-04-27T02:01:16.919Z,0
2018-04-27T02:01:57.336Z,0
2018-04-27T02:02:37.784Z,0
2018-04-27T02:03:18.178Z,0
2018-04-27T02:03:58.580Z,0
2018-04-27T02:04:39.048Z,0
2018-04-27T02:05:19.406Z,0
2018-04-27T02:05:59.828Z,0
2018-04-27T02:06:40.212Z,0
2018-04-27T02:07:20.612Z,0
2018-04-27T02:08:01.054Z,0
2018-04-27T02:08:41.458Z,0
2018-04-27T02:09:21.915Z,0
2018-04-27T02:10:02.287Z,0
2018-04-27T02:10:42.660Z,0
2018-04-27T02:11:23.099Z,0
2018-04-27T02:12:03.513Z,0
2018-04-27T02:12:43.909Z,0
2018-04-27T02:13:24.289Z,0
2018-04-27T02:14:04.750Z,0
2018-04-27T02:14:45.182Z,0
2018-04-27T02:15:25.569Z,0
2018-04-27T02:16:05.996Z,0
2018-04-27T02:16:46.454Z,0
2018-04-27T02:17:26.844Z,0
2018-04-27T02:18:07.261Z,0
2018-04-27T02:18:47.681Z,0
2018-04-27T02:19:28.060Z,0
2018-04-27T02:20:08.447Z,0
2018-04-27T02:20:48.847Z,0
2018-04-27T02:21:29.317Z,0
2018-04-27T02:22:09.725Z,0
2018-04-27T02:22:50.114Z,0
2018-04-27T02:23:30.535Z,0
2018-04-27T02:24:10.931Z,0
2018-04-27T02:24:51.358Z,0
2018-04-27T02:25:31.816Z,0
2018-04-27T02:26:12.275Z,0
2018-04-27T02:26:52.670Z,0
2018-04-27T02:27:33.049Z,0
2018-04-27T02:28:13.510Z,0
2018-04-27T02:28:53.900Z,0
2018-04-27T02:29:34.349Z,0
2018-04-27T02:30:14.711Z,0
2018-04-27T02:30:55.127Z,0
2018-04-27T02:31:35.537Z,0
2018-04-27T02:32:15.956Z,0
2018-04-27T02:32:56.300Z,0
2018-04-27T02:33:36.701Z,0
2018-04-27T02:34:17.118Z,0
2018-04-27T02:34:57.567Z,0
2018-04-27T02:35:37.946Z,0
2018-04-27T02:36:18.337Z,0
2018-04-27T02:36:58.789Z,0
2018-04-27T02:37:39.223Z,0
2018-04-27T02:38:19.619Z,0
2018-04-27T02:39:00.024Z,0
2018-04-27T02:39:40.469Z,0
2018-04-27T02:40:20.839Z,0
2018-04-27T02:41:01.223Z,0
2018-04-27T02:41:41.636Z,0
2018-04-27T02:42:22.036Z,0
2018-04-27T02:43:02.484Z,0
2018-04-27T02:43:42.860Z,0
2018-04-27T02:44:23.299Z,0
2018-04-27T02:45:03.708Z,0
2018-04-27T02:45:44.155Z,0
2018-04-27T02:46:24.628Z,0
2018-04-27T02:47:04.953Z,0
2018-04-27T02:47:45.349Z,0
2018-04-27T02:48:25.769Z,0
2018-04-27T02:49:06.218Z,0
2018-04-27T02:49:46.653Z,0
2018-04-27T02:50:27.068Z,0
2018-04-27T02:51:07.431Z,0
2018-04-27T02:51:47.802Z,0
2018-04-27T02:52:28.223Z,0
2018-04-27T02:53:08.675Z,0
2018-04-27T02:55:24.141Z,0
2018-04-27T02:56:04.286Z,0
2018-04-27T02:56:44.672Z,0
2018-04-27T02:57:25.073Z,0
2018-04-27T02:58:05.504Z,0
2018-04-27T02:58:45.882Z,0
2018-04-27T02:59:26.312Z,0
2018-04-27T03:00:06.676Z,0
2018-04-27T03:00:47.110Z,0
2018-04-27T03:01:27.510Z,0
2018-04-27T03:02:07.927Z,0
2018-04-27T03:02:48.349Z,0
2018-04-27T03:03:28.811Z,0
2018-04-27T03:04:09.212Z,0
2018-04-27T03:04:49.592Z,0
2018-04-27T03:05:30.066Z,0
2018-04-27T03:06:10.391Z,0
2018-04-27T03:06:50.865Z,0
2018-04-27T03:07:31.149Z,0
2018-04-27T03:08:11.611Z,0
2018-04-27T03:08:52.014Z,0
2018-04-27T03:09:32.349Z,0
2018-04-27T03:10:12.785Z,0
2018-04-27T03:10:53.206Z,0
2018-04-27T03:11:33.602Z,0
2018-04-27T03:12:13.993Z,0
2018-04-27T03:12:54.402Z,0
2018-04-27T03:13:34.844Z,0
2018-04-27T03:14:15.281Z,0
2018-04-27T03:14:55.622Z,0
2018-04-27T03:15:36.040Z,0
2018-04-27T03:16:16.415Z,0
2018-04-27T03:16:56.843Z,0
2018-04-27T03:17:37.218Z,0
2018-04-27T03:18:17.646Z,0
2018-04-27T03:18:58.008Z,0
2018-04-27T03:19:38.442Z,0
2018-04-27T03:20:18.853Z,0
2018-04-27T03:20:59.223Z,0
2018-04-27T03:21:39.649Z,0
2018-04-27T03:22:20.036Z,0
2018-04-27T03:23:00.432Z,0
2018-04-27T03:23:40.873Z,0
2018-04-27T03:24:21.295Z,0
2018-04-27T03:25:01.691Z,0
2018-04-27T03:25:42.065Z,0
2018-04-27T03:26:22.453Z,0
2018-04-27T03:27:02.856Z,0
2018-04-27T03:27:43.259Z,0
2018-04-27T03:28:23.712Z,0
2018-04-27T03:32:33.403Z,0
2018-04-27T03:35:17.895Z,0
2018-04-27T03:37:39.678Z,0
2018-04-27T03:38:22.005Z,0
2018-04-27T03:39:02.403Z,0
2018-04-27T03:39:42.781Z,0
2018-04-27T03:40:23.149Z,0
2018-04-27T03:41:03.676Z,0
2018-04-27T03:41:44.014Z,0
2018-04-27T03:42:24.435Z,0
2018-04-27T03:43:04.795Z,0
2018-04-27T03:45:16.083Z,0
2018-04-27T03:47:57.136Z,0
2018-04-27T03:52:08.940Z,0
2018-04-27T03:57:30.400Z,8
2018-04-27T03:58:10.755Z,8
2018-04-27T03:58:51.192Z,8
2018-04-27T03:59:31.567Z,8
2018-04-27T04:00:12.036Z,12
2018-04-27T04:00:52.441Z,12
2018-04-27T04:01:32.847Z,12
2018-04-27T04:02:13.404Z,12
2018-04-27T04:44:29.917Z,452
2018-04-27T04:45:15.819Z,512
2018-04-27T04:45:55.790Z,568
2018-04-27T04:46:36.113Z,644
2018-04-27T04:47:16.626Z,688
2018-04-27T04:47:56.998Z,700
2018-04-27T04:48:37.421Z,772
2018-04-27T04:49:17.784Z,896
2018-04-27T04:49:58.239Z,936
2018-04-27T04:50:38.619Z,904
2018-04-27T04:51:19.001Z,944
2018-04-27T04:51:59.398Z,960
2018-04-27T04:52:39.877Z,956
2018-04-27T04:53:20.243Z,928
2018-04-27T04:54:00.688Z,888
2018-04-27T04:54:41.112Z,872
2018-04-27T04:55:21.529Z,880
2018-04-27T04:56:01.934Z,908
2018-04-27T04:59:32.945Z,1324
2018-04-27T05:01:39.516Z,2748
2018-04-27T05:03:05.818Z,3216
2018-04-27T05:09:38.077Z,9536
2018-04-27T05:17:14.823Z,12704
2018-04-27T05:21:24.557Z,6504
2018-04-27T05:22:05.317Z,8248
2018-04-27T05:22:47.068Z,10184
2018-04-27T05:23:28.344Z,11284
2018-04-27T05:24:10.035Z,14624
2018-04-27T05:24:50.922Z,16576
2018-04-27T05:25:30.392Z,16352
2018-04-27T05:26:10.781Z,16288
2018-04-27T05:26:51.725Z,15296
2018-04-27T05:27:32.206Z,14848
2018-04-27T05:28:13.372Z,15072
2018-04-27T05:28:54.069Z,15072
2018-04-27T05:29:34.713Z,11848
2018-04-27T05:30:15.000Z,15520
2018-04-27T05:30:55.446Z,17248
2018-04-27T05:31:35.952Z,14784
2018-04-27T05:32:16.420Z,17472
2018-04-27T05:32:56.785Z,16992
2018-04-27T05:33:37.638Z,16256
2018-04-27T05:34:18.081Z,15744
2018-04-27T05:34:58.502Z,19392
2018-04-27T05:35:38.963Z,19200
2018-04-27T05:36:19.333Z,19872
2018-04-27T05:36:59.817Z,20192
2018-04-27T05:37:40.265Z,18720
2018-04-27T05:38:20.667Z,16128
2018-04-27T05:39:01.054Z,15840
2018-04-27T05:39:42.437Z,13056
2018-04-27T05:40:22.935Z,7080
2018-04-27T05:41:03.393Z,5452
2018-04-27T05:41:43.983Z,4376
2018-04-27T05:42:24.403Z,3956
2018-04-27T05:43:04.691Z,3592
2018-04-27T05:43:47.810Z,3392
2018-04-27T05:44:28.407Z,3416
2018-04-27T05:45:08.675Z,3600
2018-04-27T05:45:49.278Z,3852
2018-04-27T05:46:30.016Z,4328
2018-04-27T05:47:10.750Z,4544
2018-04-27T05:47:51.325Z,4324
2018-04-27T05:48:32.312Z,4164
2018-04-27T05:49:12.634Z,4548
2018-04-27T05:49:53.075Z,5380
2018-04-27T05:50:34.620Z,5924
2018-04-27T05:51:15.659Z,5988
2018-04-27T05:51:59.471Z,6108
2018-04-27T05:52:40.266Z,5336
2018-04-27T05:53:21.868Z,5204
2018-04-27T05:54:01.926Z,7972
2018-04-27T05:54:41.897Z,8072
2018-04-27T05:55:22.843Z,8376
2018-04-27T05:56:03.415Z,6624
2018-04-27T05:56:43.521Z,5352
2018-04-27T05:57:24.064Z,4924
2018-04-27T05:58:04.381Z,6140
2018-04-27T05:58:44.794Z,6340
2018-04-27T05:59:25.162Z,5660
2018-04-27T06:00:05.595Z,7304
2018-04-27T06:00:46.219Z,5588
2018-04-27T06:01:26.892Z,5412
2018-04-27T06:02:07.456Z,6052
2018-04-27T06:02:47.965Z,7388
2018-04-27T06:03:28.644Z,8748
2018-04-27T06:04:08.892Z,8484
2018-04-27T06:04:50.394Z,10188
2018-04-27T06:05:31.295Z,8016
2018-04-27T06:06:12.016Z,8140
2018-04-27T06:06:52.419Z,8924
2018-04-27T06:07:32.797Z,8212
2018-04-27T06:08:13.177Z,8116
2018-04-27T06:08:53.621Z,11232
2018-04-27T06:09:34.107Z,11464
2018-04-27T06:10:14.599Z,12176
2018-04-27T06:10:55.014Z,7964
2018-04-27T06:11:35.408Z,7956
2018-04-27T06:12:15.906Z,10596
2018-04-27T06:12:56.357Z,9180
2018-04-27T06:13:36.785Z,9228
2018-04-27T06:14:17.223Z,8344
2018-04-27T06:14:57.702Z,9260
2018-04-27T06:15:38.397Z,7756
2018-04-27T06:16:18.877Z,11048
2018-04-27T06:16:59.427Z,13288
2018-04-27T06:17:39.784Z,10776
2018-04-27T06:18:20.250Z,13068
2018-04-27T06:19:02.417Z,25792
2018-04-27T06:19:42.779Z,24928
2018-04-27T06:20:23.428Z,16288
2018-04-27T06:21:03.915Z,24512
2018-04-27T06:21:46.466Z,22560
2018-04-27T06:22:26.634Z,25440
2018-04-27T06:23:07.980Z,24288
2018-04-27T06:23:48.321Z,22048
2018-04-27T06:26:03.768Z,18336
2018-04-27T06:26:47.863Z,19008
2018-04-27T06:27:33.881Z,15264
2018-04-27T06:28:14.859Z,14704
2018-04-27T06:28:56.103Z,14120
2018-04-27T06:29:39.843Z,13612
2018-04-27T06:30:23.323Z,16096
2018-04-27T06:31:03.460Z,13432
2018-04-27T06:31:45.117Z,11088
2018-04-27T06:32:26.458Z,10900
2018-04-27T06:33:06.378Z,9864
2018-04-27T06:33:47.077Z,13260
2018-04-27T06:34:27.783Z,17920
2018-04-27T06:35:08.375Z,13280
2018-04-27T06:35:48.800Z,12972
2018-04-27T06:36:29.244Z,12832
2018-04-27T06:37:10.448Z,10560
2018-04-27T06:37:52.732Z,10248
2018-04-27T06:38:33.336Z,9120
2018-04-27T06:39:15.422Z,10132
2018-04-27T06:39:57.714Z,10732
2018-04-27T06:40:38.699Z,9884
2018-04-27T06:41:19.118Z,8756
2018-04-27T06:42:00.768Z,8108
2018-04-27T06:42:44.654Z,8796
2018-04-27T06:43:24.952Z,9356
2018-04-27T06:44:07.020Z,9368
2018-04-27T06:44:47.422Z,9292
2018-04-27T06:45:27.985Z,7356
2018-04-27T06:46:14.097Z,7408
2018-04-27T06:46:54.640Z,7048
2018-04-27T06:51:41.343Z,11064
2018-04-27T06:52:21.800Z,11260
2018-04-27T06:53:02.230Z,12076
2018-04-27T06:53:42.883Z,9704
2018-04-27T06:54:23.424Z,11668
2018-04-27T06:55:04.783Z,8520
2018-04-27T06:55:48.156Z,8408
2018-04-27T06:56:28.690Z,6612
2018-04-27T06:57:09.491Z,7820
2018-04-27T06:57:56.966Z,8036
2018-04-27T06:58:38.251Z,9112
2018-04-27T06:59:22.069Z,7988
2018-04-27T07:00:02.814Z,7720
2018-04-27T07:00:44.125Z,7432
2018-04-27T07:07:04.748Z,7348
2018-04-27T07:09:06.616Z,6680
2018-04-27T07:09:47.043Z,6660
2018-04-27T07:12:25.703Z,6840
2018-04-27T07:13:06.189Z,6468
2018-04-27T07:13:48.170Z,5768
2018-04-27T07:14:28.839Z,6468
2018-04-27T07:15:09.266Z,6628
2018-04-27T07:15:49.872Z,7556
2018-04-27T07:16:31.852Z,8784
2018-04-27T07:17:11.688Z,6180
2018-04-27T07:17:52.486Z,6944
2018-04-27T07:18:32.970Z,5928
2018-04-27T07:19:13.342Z,5636
2018-04-27T07:19:53.675Z,5200
2018-04-27T07:29:55.982Z,6236
2018-04-27T07:37:02.262Z,5136
2018-04-27T07:37:42.611Z,5192
2018-04-27T07:38:23.905Z,5212
2018-04-27T07:39:05.177Z,5132
2018-04-27T07:39:46.177Z,5092
2018-04-27T07:40:27.466Z,5120
2018-04-27T07:41:08.190Z,5208
2018-04-27T07:41:48.633Z,5240
2018-04-27T07:42:28.927Z,5144
2018-04-27T07:43:09.518Z,4624
2018-04-27T07:47:38.393Z,4804
2018-04-27T07:54:59.710Z,4884
2018-04-27T07:55:40.806Z,4908
2018-04-27T07:56:21.614Z,4896
2018-04-27T08:10:59.710Z,4308
2018-04-27T08:12:58.665Z,4160
2018-04-27T08:16:56.026Z,4088
2018-04-27T08:17:36.958Z,4108
2018-04-27T08:18:18.611Z,4148
2018-04-27T08:18:59.041Z,4092
2018-04-27T08:19:40.332Z,4072
2018-04-27T08:20:21.102Z,4036
2018-04-27T08:21:02.095Z,4084
2018-04-27T08:21:42.688Z,4096
2018-04-27T08:22:25.773Z,4256
2018-04-27T08:23:06.418Z,4280
2018-04-27T08:23:49.053Z,4172
2018-04-27T08:24:28.627Z,4176
2018-04-27T08:25:10.163Z,4172
2018-04-27T08:25:50.750Z,4152
2018-04-27T08:26:31.062Z,4248
2018-04-27T08:27:13.549Z,4228
2018-04-27T08:27:53.746Z,4248
2018-04-27T08:28:34.666Z,4168
2018-04-27T08:29:15.781Z,4136
2018-04-27T08:29:56.482Z,4136
2018-04-27T08:30:37.481Z,4132
2018-04-27T08:31:18.620Z,4104
2018-04-27T08:31:59.535Z,3928
2018-04-27T08:32:40.124Z,4020
2018-04-27T08:33:20.977Z,3888
2018-04-27T08:34:01.931Z,3720
2018-04-27T08:34:42.998Z,3668
2018-04-27T08:35:23.732Z,3640
2018-04-27T08:36:04.265Z,3640
2018-04-27T08:36:45.547Z,3560
2018-04-27T08:37:25.918Z,3540
2018-04-27T08:38:06.909Z,3680
2018-04-27T08:38:48.116Z,3740
2018-04-27T08:39:28.357Z,3772
2018-04-27T08:40:09.448Z,3636
2018-04-27T08:40:51.049Z,3628
2018-04-27T08:41:31.118Z,3648
2018-04-27T08:42:11.397Z,3692
2018-04-27T08:42:52.197Z,3668
2018-04-27T08:43:32.815Z,3616
2018-04-27T08:44:13.507Z,3548
2018-04-27T08:44:54.296Z,3588
2018-04-27T08:45:35.034Z,3584
2018-04-27T08:46:15.968Z,3648
2018-04-27T08:46:57.033Z,3680
2018-04-27T08:47:37.266Z,3540
2018-04-27T08:48:18.166Z,3584
2018-04-27T08:48:58.804Z,3684
2018-04-27T08:49:40.567Z,3440
2018-04-27T08:50:21.425Z,3300
2018-04-27T08:51:04.538Z,3352
2018-04-27T08:51:45.125Z,3508
2018-04-27T08:52:26.268Z,3468
2018-04-27T08:53:07.554Z,3432
2018-04-27T08:53:47.957Z,3284
2018-04-27T08:54:28.365Z,3220
2018-04-27T08:55:09.552Z,3180
2018-04-27T08:55:51.184Z,3232
2018-04-27T08:56:31.315Z,3364
2018-04-27T08:57:12.159Z,3380
2018-04-27T08:57:54.148Z,3508
2018-04-27T08:58:36.189Z,3480
2018-04-27T08:59:16.740Z,3372
2018-04-27T08:59:57.663Z,3376
2018-04-27T09:00:38.586Z,3408
2018-04-27T09:01:18.827Z,3468
2018-04-27T09:02:00.058Z,3516
2018-04-27T09:02:41.001Z,3504
2018-04-27T09:03:21.536Z,3580
2018-04-27T09:04:03.074Z,3556
2018-04-27T09:04:43.520Z,3504
2018-04-27T09:05:24.009Z,3384
2018-04-27T09:06:05.235Z,3216
2018-04-27T09:06:45.681Z,3208
2018-04-27T09:07:27.806Z,3296
2018-04-27T09:08:07.601Z,3372
2018-04-27T09:08:48.344Z,3340
2018-04-27T09:09:29.217Z,3440
2018-04-27T09:10:09.744Z,3480
2018-04-27T09:10:50.894Z,3440
2018-04-27T09:14:16.597Z,3200
2018-04-27T09:23:28.781Z,3212
2018-04-27T09:24:09.212Z,3300
2018-04-27T09:24:50.827Z,3272
2018-04-27T09:25:32.114Z,3256
2018-04-27T09:26:12.576Z,3256
2018-04-27T09:26:53.381Z,3192
2018-04-27T09:27:33.892Z,3220
2018-04-27T09:28:14.765Z,3176
2018-04-27T09:28:55.265Z,3248
2018-04-27T09:29:35.938Z,3264
2018-04-27T09:30:17.470Z,3216
2018-04-27T09:30:58.545Z,3244
2018-04-27T09:31:41.503Z,3204
2018-04-27T09:32:21.446Z,3152
2018-04-27T09:33:02.616Z,3120
2018-04-27T09:33:42.821Z,3032
2018-04-27T09:34:23.564Z,3032
2018-04-27T09:35:04.317Z,3136
2018-04-27T09:35:45.086Z,3180
2018-04-27T09:36:26.322Z,3160
2018-04-27T09:37:07.766Z,3264
2018-04-27T09:37:48.682Z,3368
2018-04-27T09:38:29.963Z,3304
2018-04-27T09:39:11.085Z,3328
2018-04-27T09:39:51.759Z,3276
2018-04-27T09:40:32.192Z,3172
2018-04-27T09:41:13.412Z,3224
2018-04-27T09:41:53.797Z,3260
2018-04-27T09:42:34.549Z,3152
2018-04-27T09:43:15.136Z,3248
2018-04-27T09:43:56.408Z,3220
2018-04-27T09:44:37.948Z,3216
2018-04-27T09:45:18.410Z,3116
2018-04-27T09:45:58.637Z,3036
2018-04-27T09:46:40.434Z,3032
2018-04-27T09:47:20.827Z,2968
2018-04-27T09:48:01.977Z,3036
2018-04-27T09:48:42.937Z,3112
2018-04-27T09:49:23.743Z,3224
2018-04-27T09:50:04.381Z,3268
2018-04-27T09:50:46.197Z,3288
2018-04-27T09:51:26.406Z,3340
2018-04-27T09:52:07.137Z,3296
2018-04-27T09:52:48.477Z,3260
2018-04-27T09:53:29.262Z,3260
2018-04-27T09:54:09.984Z,3000
2018-04-27T09:54:50.576Z,3000
2018-04-27T09:55:31.568Z,2996
2018-04-27T09:56:13.501Z,3092
2018-04-27T09:56:53.423Z,3124
2018-04-27T09:57:33.736Z,3068
2018-04-27T09:58:14.124Z,3140
2018-04-27T09:58:54.961Z,3196
2018-04-27T09:59:35.445Z,3216
2018-04-27T10:00:16.058Z,3228
2018-04-27T10:00:56.599Z,3232
2018-04-27T10:01:37.235Z,3184
2018-04-27T10:02:17.945Z,3172
2018-04-27T10:02:59.880Z,3152
2018-04-27T10:03:40.690Z,3020
2018-04-27T10:04:21.068Z,2968
2018-04-27T10:45:18.238Z,3044
2018-04-27T10:45:58.868Z,3044
2018-04-27T10:46:39.268Z,3008
2018-04-27T10:47:19.704Z,3004
2018-04-27T10:48:00.074Z,3012
2018-04-27T10:48:40.700Z,3036
2018-04-27T10:49:20.946Z,3016
2018-04-27T10:50:01.881Z,3196
2018-04-27T10:50:42.386Z,3144
2018-04-27T10:51:23.153Z,3044
2018-04-27T10:52:04.049Z,3076
2018-04-27T10:52:44.447Z,3096
2018-04-27T10:53:24.975Z,3188
2018-04-27T10:54:05.374Z,3080
2018-04-27T10:54:46.189Z,3052
2018-04-27T10:55:26.650Z,3032
2018-04-27T10:56:07.246Z,2968
2018-04-27T10:56:47.604Z,2920
2018-04-27T10:57:28.349Z,2908
2018-04-27T10:58:08.810Z,2876
2018-04-27T10:58:49.234Z,2908
2018-04-27T10:59:29.759Z,2980
2018-04-27T11:00:10.256Z,3000
2018-04-27T11:00:50.699Z,2980
2018-04-27T11:01:31.110Z,2988
2018-04-27T11:02:11.607Z,2988
2018-04-27T11:02:52.669Z,2980
2018-04-27T11:03:33.231Z,2968
2018-04-27T11:04:13.623Z,2936
2018-04-27T11:04:54.684Z,2908
2018-04-27T11:05:34.906Z,2904
2018-04-27T11:06:15.442Z,2932
2018-04-27T11:06:55.903Z,2960
2018-04-27T11:07:36.982Z,2968
2018-04-27T11:08:17.330Z,2984
2018-04-27T11:08:58.063Z,3020
2018-04-27T11:09:38.479Z,3068
2018-04-27T11:10:19.083Z,3100
2018-04-27T11:10:59.873Z,3124
2018-04-27T11:11:40.658Z,3144
2018-04-27T11:12:21.398Z,3160
2018-04-27T11:13:01.852Z,3052
2018-04-27T11:26:22.061Z,2464
2018-04-27T11:27:02.784Z,2452
2018-04-27T11:27:43.887Z,2496
2018-04-27T11:28:24.359Z,2584
2018-04-27T11:29:04.785Z,2680
2018-04-27T11:29:45.193Z,2700
2018-04-27T11:30:27.187Z,2624
2018-04-27T11:31:07.508Z,2636
2018-04-27T11:31:47.963Z,2632
2018-04-27T11:32:28.373Z,2660
2018-04-27T11:33:08.794Z,2624
2018-04-27T11:33:49.690Z,2484
2018-04-27T11:34:30.065Z,2352
2018-04-27T11:35:10.549Z,2172
2018-04-27T11:35:50.893Z,2152
2018-04-27T11:36:31.275Z,2140
2018-04-27T11:37:13.211Z,2160
2018-04-27T11:37:53.572Z,2216
2018-04-27T11:38:34.036Z,2316
2018-04-27T11:39:15.383Z,2320
2018-04-27T11:39:55.764Z,2380
2018-04-27T11:40:36.333Z,2520
2018-04-27T11:41:18.619Z,2640
2018-04-27T11:42:00.907Z,2836
2018-04-27T11:42:41.957Z,2792
2018-04-27T11:43:22.955Z,2900
2018-04-27T11:44:03.591Z,2796
2018-04-27T11:44:44.423Z,2788
2018-04-27T11:45:25.544Z,2728
2018-04-27T11:46:06.533Z,2876
2018-04-27T11:46:47.584Z,2812
2018-04-27T11:47:28.293Z,2772
2018-04-27T11:48:08.740Z,2764
2018-04-27T11:48:49.982Z,2796
2018-04-27T11:49:30.955Z,2716
2018-04-27T11:50:11.748Z,2700
2018-04-27T11:50:53.147Z,2656
2018-04-27T11:51:33.207Z,2600
2018-04-27T11:52:14.428Z,2564
2018-04-27T11:52:54.806Z,2576
2018-04-27T11:53:35.930Z,2584
2018-04-27T11:54:15.963Z,2564
2018-04-27T11:54:56.637Z,2768
2018-04-27T11:57:34.472Z,2460
2018-04-27T11:58:15.981Z,2568
2018-04-27T11:58:56.802Z,2452
2018-04-27T11:59:38.281Z,2508
2018-04-27T12:00:19.643Z,2648
2018-04-27T12:00:59.529Z,2380
2018-04-27T12:01:40.907Z,2548
2018-04-27T12:02:21.695Z,2600
2018-04-27T12:03:02.740Z,2528
2018-04-27T12:03:43.607Z,2644
2018-04-27T12:04:25.708Z,2624
2018-04-27T12:05:06.130Z,2672
2018-04-27T12:05:47.362Z,2648
2018-04-27T12:06:27.361Z,2596
2018-04-27T12:07:09.187Z,2516
2018-04-27T12:07:50.038Z,2372
2018-04-27T12:08:31.758Z,2372
2018-04-27T12:09:12.508Z,2244
2018-04-27T12:09:55.555Z,2164
2018-04-27T12:10:36.240Z,2160
2018-04-27T12:11:18.291Z,2156
2018-04-27T12:12:00.204Z,1624
2018-04-27T12:12:42.652Z,2076
2018-04-27T12:13:23.470Z,2148
2018-04-27T12:14:06.828Z,2136
2018-04-27T12:14:46.792Z,2072
2018-04-27T12:15:28.214Z,2040
2018-04-27T12:16:09.004Z,1980
2018-04-27T12:16:49.690Z,1992
2018-04-27T12:17:30.101Z,1964
2018-04-27T12:18:10.892Z,1412
2018-04-27T12:18:51.617Z,1552
2018-04-27T12:19:32.030Z,1360
2018-04-27T12:22:06.511Z,1920
2018-04-27T12:22:48.221Z,1892
2018-04-27T12:23:28.549Z,1964
2018-04-27T12:24:10.767Z,2024
2018-04-27T12:24:51.724Z,1984
2018-04-27T12:25:32.249Z,2028
2018-04-27T12:26:13.167Z,2028
2018-04-27T12:26:55.742Z,2024
2018-04-27T12:27:36.444Z,2060
2018-04-27T12:28:17.251Z,2092
2018-04-27T12:28:57.771Z,2100
2018-04-27T12:29:40.670Z,2092
2018-04-27T12:30:21.227Z,2128
2018-04-27T12:31:01.973Z,2068
2018-04-27T12:31:42.719Z,2144
2018-04-27T12:32:23.746Z,2144
2018-04-27T12:33:04.716Z,2148
2018-04-27T12:33:45.534Z,2124
2018-04-27T12:34:26.142Z,2096
2018-04-27T12:35:06.770Z,2076
2018-04-27T12:35:48.395Z,2036
2018-04-27T12:36:28.984Z,2076
2018-04-27T12:37:09.300Z,2092
2018-04-27T12:37:49.769Z,1916
2018-04-27T12:38:30.240Z,2124
2018-04-27T12:39:10.629Z,2220
2018-04-27T12:39:51.030Z,2244
2018-04-27T12:40:31.847Z,2252
2018-04-27T12:41:12.325Z,2220
2018-04-27T12:41:52.933Z,2240
2018-04-27T12:42:34.090Z,2272
2018-04-27T12:43:15.162Z,2228
2018-04-27T12:43:55.716Z,2116
2018-04-27T12:44:36.714Z,2012
2018-04-27T12:45:17.287Z,1944
2018-04-27T12:45:58.139Z,1912
2018-04-27T12:46:38.841Z,1888
2018-04-27T12:47:20.789Z,1860
2018-04-27T12:48:01.573Z,1832
2018-04-27T12:48:42.303Z,1768
2018-04-27T12:49:23.845Z,1780
2018-04-27T12:50:04.001Z,1764
2018-04-27T12:50:44.690Z,1760
2018-04-27T12:51:26.079Z,1800
2018-04-27T12:52:07.347Z,1836
2018-04-27T12:52:48.533Z,1868
2018-04-27T12:53:29.147Z,1884
2018-04-27T12:54:09.971Z,1876
2018-04-27T12:54:50.987Z,1864
2018-04-27T12:55:32.009Z,1892
2018-04-27T12:56:13.207Z,1896
2018-04-27T12:56:54.033Z,1872
2018-04-27T12:57:35.533Z,1804
2018-04-27T12:58:16.118Z,1772
2018-04-27T12:58:56.924Z,1764
2018-04-27T12:59:37.967Z,1756
2018-04-27T13:00:20.836Z,1752
2018-04-27T13:01:01.269Z,1732
2018-04-27T13:01:41.944Z,1724
2018-04-27T13:02:23.247Z,1712
2018-04-27T13:03:03.701Z,1692
2018-04-27T13:03:44.600Z,1676
2018-04-27T13:04:25.853Z,1660
2018-04-27T13:05:07.371Z,1648
2018-04-27T13:05:48.955Z,1644
2018-04-27T13:06:29.273Z,1656
2018-04-27T13:07:10.097Z,1692